EST,Max TemperatureF,Mean TemperatureF,Min TemperatureF,Max Dew PointF,MeanDew PointF,Min DewpointF,Max Humidity, Mean Humidity, Min Humidity, Max Sea Level PressureIn, Mean Sea Level PressureIn, Min Sea Level PressureIn, Max VisibilityMiles, Mean VisibilityMiles, Min VisibilityMiles, Max Wind SpeedMPH, Mean Wind SpeedMPH, Max Gust SpeedMPH,PrecipitationIn, CloudCover, Events, WindDirDegrees
2012-12-1,62,46,30,48,40,30,100,82,52,30.43,30.38,30.34,10,9,4,5,0,,0.00,0,,143
2012-12-2,64,48,33,52,45,34,100,83,63,30.42,30.33,30.25,10,9,4,9,2,,0.00,1,,189
2012-12-3,69,60,50,59,55,48,100,87,64,30.29,30.25,30.22,10,9,4,7,4,,0.00,3,Rain,221
2012-12-4,75,60,46,57,54,46,100,82,50,30.32,30.24,30.16,10,8,0,14,3,18,0.00,1,Fog,206
2012-12-5,62,50,37,61,51,37,100,95,82,30.26,30.16,30.10,10,8,0,10,6,16,0.07,5,Fog-Rain,234
2012-12-6,48,40,33,39,35,30,100,84,53,30.37,30.30,30.25,10,10,1,15,3,17,0.00,0,,48
2012-12-7,62,48,33,61,49,34,100,89,72,30.24,30.13,29.98,10,10,3,8,1,,0.00,6,Rain,133
2012-12-8,62,56,51,63,56,52,100,96,77,30.06,29.99,29.95,10,6,0,8,4,,0.00,4,Fog-Rain,222
2012-12-9,69,58,46,63,56,46,100,93,73,30.16,30.09,30.02,10,7,0,9,3,,0.07,3,Fog-Rain,183
2012-12-10,71,65,59,66,62,59,100,90,73,30.01,29.81,29.70,10,9,4,16,6,20,0.00,3,,193
2012-12-11,66,58,50,61,48,36,100,76,54,30.18,29.95,29.72,10,10,1,14,8,18,0.00,6,,40
2012-12-12,50,47,44,41,36,34,81,67,62,30.35,30.29,30.18,10,10,10,17,10,23,0.03,8,Rain,29
2012-12-13,51,42,33,43,39,32,100,80,62,30.36,30.33,30.29,10,10,5,15,10,23,0.13,4,Rain,16
2012-12-14,55,42,28,39,32,27,100,80,33,30.38,30.31,30.25,10,10,5,5,0,,0.00,0,,273
2012-12-15,55,42,28,48,37,28,100,87,54,30.31,30.23,30.12,10,10,10,7,1,,0.00,1,,103
2012-12-16,57,52,48,57,53,48,100,99,94,30.12,30.00,29.89,10,5,1,9,3,,0.53,8,Rain,198
2012-12-17,64,60,57,59,58,55,100,93,77,29.90,29.79,29.59,10,8,2,16,4,26,0.28,5,Rain,209
2012-12-18,62,53,44,57,50,36,100,79,55,29.87,29.69,29.63,10,10,10,18,8,25,0.00,3,Rain,244
2012-12-19,62,50,37,43,38,36,100,73,39,30.18,29.99,29.85,10,10,10,15,5,18,0.00,0,,256
2012-12-20,60,50,39,61,47,37,100,81,63,30.19,29.93,29.53,10,10,10,18,6,26,0.21,3,Rain,114
2012-12-21,62,50,37,63,36,23,100,65,46,29.71,29.54,29.37,10,10,7,24,18,36,0.18,6,Rain,249
2012-12-22,50,41,32,27,25,23,80,55,37,30.06,29.90,29.71,10,10,10,23,12,32,0.00,0,,266
2012-12-23,53,40,26,30,25,21,86,58,30,30.16,30.06,30.01,10,10,10,9,3,,0.00,0,,217
2012-12-24,55,48,41,45,38,28,87,67,50,30.07,29.99,29.91,10,10,10,8,2,,0.00,5,Rain,192
2012-12-25,53,48,42,46,43,39,100,82,62,30.21,30.08,29.92,10,10,10,14,4,,0.00,2,,25
2012-12-26,62,53,42,63,50,41,100,95,87,30.17,29.75,29.37,10,9,1,21,11,30,1.97,7,Rain-Thunderstorm,80
2012-12-27,50,44,35,41,34,28,93,71,50,30.07,29.80,29.53,10,10,10,23,13,28,0.00,1,,269
2012-12-28,42,36,30,36,31,27,100,80,61,30.18,30.11,30.05,10,10,10,8,2,,0.00,0,,298
2012-12-29,46,42,37,45,40,34,100,90,70,30.06,29.77,29.59,10,9,2,15,4,24,0.46,5,Rain,285
2012-12-30,46,38,30,32,26,21,86,62,39,30.37,30.22,29.85,10,10,10,18,9,29,0.00,0,,285
2012-12-31,46,35,24,32,27,23,100,69,49,30.36,30.26,30.10,10,10,10,14,3,,0.00,1,,211